Time;durP1;ratioP1;P1;durP2;ratioP2;P2;SDS_P1;SDS_P2;PMS_P1;PMS_P2;Temp;Humidity;BMP_temperature;BMP_pressure;BME280_temperature;BME280_humidity;BME280_pressure;Samples;Min_cycle;Max_cycle;Signal;HPM_P1;HPM_P2
2020/12/03 00:00:28;;;;;;;19.52;9.38;;;2.00;84.40;;;;;;5090180;28;20424;-85
2020/12/03 00:02:56;;;;;;;22.98;8.25;;;1.90;84.60;;;;;;5090034;28;20044;-83
2020/12/03 00:05:22;;;;;;;22.45;8.63;;;2.00;85.10;;;;;;5088451;28;20129;-84
2020/12/03 00:07:50;;;;;;;18.58;7.57;;;2.00;85.60;;;;;;5091430;28;20056;-88
2020/12/03 00:10:24;;;;;;;22.65;8.15;;;2.00;85.10;;;;;;5073055;28;20347;-85
2020/12/03 00:13:09;;;;;;;21.55;9.10;;;1.90;85.00;;;;;;5089659;28;20043;-86
2020/12/03 00:15:37;;;;;;;22.33;9.15;;;1.80;85.20;;;;;;5086479;28;20139;-87
2020/12/03 00:18:05;;;;;;;20.70;7.93;;;1.90;85.60;;;;;;5073940;28;20498;-86
2020/12/03 00:20:35;;;;;;;20.83;8.55;;;1.90;85.40;;;;;;5090078;28;20064;-83
2020/12/03 00:23:04;;;;;;;21.83;8.63;;;1.90;84.90;;;;;;5072141;28;20067;-83
2020/12/03 00:25:32;;;;;;;23.35;8.65;;;2.00;85.70;;;;;;5097407;28;20765;-83
2020/12/03 00:28:00;;;;;;;20.60;7.00;;;2.00;85.40;;;;;;5091281;28;20119;-82
2020/12/03 00:30:34;;;;;;;21.88;9.35;;;2.00;85.80;;;;;;5093549;28;20048;-84
2020/12/03 00:33:02;;;;;;;27.02;10.32;;;2.00;85.40;;;;;;5079313;28;20056;-85
2020/12/03 00:35:29;;;;;;;20.98;9.60;;;1.90;85.50;;;;;;5079492;28;20126;-85
2020/12/03 00:37:56;;;;;;;18.48;7.55;;;1.90;86.00;;;;;;5097491;28;20076;-84
2020/12/03 00:40:24;;;;;;;17.63;7.97;;;1.90;86.50;;;;;;5093285;28;20997;-86
2020/12/03 00:42:57;;;;;;;19.90;7.43;;;2.10;86.20;;;;;;5087262;28;20126;-84
2020/12/03 00:45:24;;;;;;;22.77;8.75;;;2.00;86.00;;;;;;5090931;28;20151;-85
2020/12/03 00:47:52;;;;;;;19.98;8.82;;;2.00;86.20;;;;;;5089479;28;20039;-87
2020/12/03 00:50:20;;;;;;;25.25;9.43;;;2.00;86.70;;;;;;5092300;28;20055;-83
2020/12/03 00:52:52;;;;;;;21.30;9.32;;;2.00;86.10;;;;;;5089115;28;20052;-82
2020/12/03 00:55:19;;;;;;;16.85;7.22;;;1.80;86.20;;;;;;5089082;28;20378;-84
2020/12/03 00:57:48;;;;;;;23.05;8.25;;;1.80;86.30;;;;;;5091096;28;20073;-86
2020/12/03 01:00:19;;;;;;;19.92;8.50;;;1.90;86.00;;;;;;5087892;28;20048;-83
2020/12/03 01:02:46;;;;;;;24.80;10.52;;;2.10;85.40;;;;;;5070683;28;20050;-83
2020/12/03 01:05:14;;;;;;;23.63;7.63;;;2.00;85.30;;;;;;5079934;28;20213;-84
2020/12/03 01:07:42;;;;;;;21.42;8.45;;;1.90;85.80;;;;;;5090381;28;20055;-83
2020/12/03 01:10:15;;;;;;;20.95;7.85;;;1.70;86.70;;;;;;5091338;28;20058;-84
2020/12/03 01:12:42;;;;;;;19.67;8.65;;;1.70;87.60;;;;;;5077511;28;20240;-84
2020/12/03 01:15:10;;;;;;;20.25;8.75;;;1.70;88.00;;;;;;5072445;28;20257;-86
2020/12/03 01:17:37;;;;;;;20.30;7.55;;;1.60;88.40;;;;;;5087561;28;20063;-84
2020/12/03 01:20:08;;;;;;;19.90;7.75;;;1.60;88.60;;;;;;5092017;28;20059;-85
2020/12/03 01:22:35;;;;;;;27.65;9.02;;;1.50;88.50;;;;;;5089917;28;20054;-85
2020/12/03 01:25:05;;;;;;;18.73;7.53;;;1.60;88.90;;;;;;5090559;28;20047;-86
2020/12/03 01:27:34;;;;;;;19.08;9.25;;;1.50;88.80;;;;;;5088188;28;20056;-88
2020/12/03 01:30:02;;;;;;;18.50;8.00;;;1.50;89.20;;;;;;5075738;28;20048;-86
2020/12/03 01:32:30;;;;;;;20.98;8.63;;;1.50;89.00;;;;;;5080086;28;20144;-83
2020/12/03 01:34:58;;;;;;;20.73;9.20;;;1.50;89.10;;;;;;5091659;28;20052;-84
2020/12/03 01:37:24;;;;;;;19.42;8.55;;;1.50;89.60;;;;;;5093218;28;20380;-83
2020/12/03 01:39:51;;;;;;;22.63;7.45;;;1.50;89.40;;;;;;5074534;28;20063;-85
2020/12/03 01:42:19;;;;;;;21.50;7.88;;;1.40;89.70;;;;;;5074792;28;20119;-85
2020/12/03 01:44:49;;;;;;;19.15;6.25;;;1.40;89.80;;;;;;5076249;28;20052;-87
2020/12/03 01:47:24;;;;;;;20.52;8.30;;;1.50;89.50;;;;;;5089269;28;20352;-84
2020/12/03 01:49:53;;;;;;;18.48;7.57;;;1.50;89.20;;;;;;5073110;28;20059;-86
2020/12/03 01:52:20;;;;;;;16.00;7.80;;;1.40;89.40;;;;;;5090823;28;20044;-84
2020/12/03 01:54:49;;;;;;;20.15;9.18;;;1.40;89.20;;;;;;5087840;28;20051;-85
2020/12/03 01:57:52;;;;;;;15.75;7.05;;;1.50;88.90;;;;;;5087513;28;20052;-86
2020/12/03 02:00:19;;;;;;;15.10;5.38;;;1.50;88.80;;;;;;5110524;28;20059;-83
2020/12/03 02:02:48;;;;;;;15.98;7.05;;;1.60;88.30;;;;;;5074188;28;20093;-86
2020/12/03 02:05:22;;;;;;;15.57;7.22;;;1.60;88.70;;;;;;5095325;28;20062;-84
2020/12/03 02:07:50;;;;;;;17.98;6.90;;;1.60;88.30;;;;;;5074677;28;20063;-87
2020/12/03 02:10:21;;;;;;;17.65;7.25;;;1.70;88.30;;;;;;5089891;28;20056;-85
2020/12/03 02:12:50;;;;;;;15.60;7.15;;;1.70;88.70;;;;;;5088926;28;20141;-87
2020/12/03 02:15:22;;;;;;;11.98;5.20;;;1.70;88.70;;;;;;5088258;28;20044;-82
2020/12/03 02:17:50;;;;;;;18.63;7.80;;;1.70;87.70;;;;;;5091265;28;20059;-87
2020/12/03 02:20:20;;;;;;;16.45;6.80;;;1.70;88.20;;;;;;5090032;28;20055;-86
2020/12/03 02:22:48;;;;;;;13.82;6.35;;;1.80;87.70;;;;;;5090015;28;20594;-84
2020/12/03 02:25:19;;;;;;;16.52;6.22;;;1.80;87.30;;;;;;5075716;28;20063;-85
2020/12/03 02:27:46;;;;;;;13.20;5.95;;;1.80;87.40;;;;;;5085946;28;20084;-85
2020/12/03 02:30:14;;;;;;;15.90;6.30;;;1.80;86.90;;;;;;5091496;28;20090;-86
2020/12/03 02:32:41;;;;;;;13.50;6.60;;;1.80;86.90;;;;;;5072642;28;20055;-83
2020/12/03 02:35:14;;;;;;;11.93;5.78;;;1.80;86.70;;;;;;5091653;28;20064;-86
2020/12/03 02:37:42;;;;;;;11.77;5.95;;;1.70;86.50;;;;;;5090408;28;20228;-86
2020/12/03 02:40:10;;;;;;;14.70;5.28;;;1.80;86.70;;;;;;5077754;28;20062;-85
2020/12/03 02:42:38;;;;;;;11.80;5.68;;;1.70;86.50;;;;;;5097401;28;20407;-84
2020/12/03 02:45:06;;;;;;;12.05;6.05;;;1.90;86.70;;;;;;5097416;28;20075;-85
2020/12/03 02:47:34;;;;;;;15.77;7.53;;;1.80;86.10;;;;;;5093506;28;20058;-83
2020/12/03 02:50:04;;;;;;;11.25;5.75;;;1.80;86.10;;;;;;5092684;28;20056;-85
2020/12/03 02:52:30;;;;;;;12.77;5.47;;;1.80;85.90;;;;;;5093642;28;20250;-85
2020/12/03 02:54:58;;;;;;;16.13;6.55;;;1.70;86.20;;;;;;5080377;28;20044;-85
2020/12/03 02:57:25;;;;;;;12.43;5.60;;;1.80;86.20;;;;;;5094341;28;20063;-84
2020/12/03 02:59:52;;;;;;;16.45;5.93;;;1.80;85.50;;;;;;5091665;28;20068;-88
2020/12/03 03:02:19;;;;;;;13.10;5.55;;;1.70;85.80;;;;;;5095194;28;20344;-89
2020/12/03 03:04:46;;;;;;;14.68;6.57;;;1.70;86.10;;;;;;5077217;28;20071;-86
2020/12/03 03:07:13;;;;;;;17.48;6.70;;;1.70;86.10;;;;;;5093013;28;20418;-86
2020/12/03 03:09:40;;;;;;;16.05;7.00;;;1.70;86.10;;;;;;5114909;28;20075;-86
2020/12/03 03:12:08;;;;;;;11.90;6.13;;;1.70;85.70;;;;;;5075077;28;20048;-85
2020/12/03 03:14:35;;;;;;;12.88;5.78;;;1.70;85.70;;;;;;5092614;28;20063;-87
2020/12/03 03:17:06;;;;;;;17.40;4.80;;;1.70;85.80;;;;;;5097676;28;20063;-88
2020/12/03 03:19:33;;;;;;;13.93;6.63;;;1.70;85.30;;;;;;5096628;28;20058;-87
2020/12/03 03:22:00;;;;;;;17.13;7.50;;;1.60;85.80;;;;;;5091888;28;20107;-83
2020/12/03 03:24:28;;;;;;;12.52;6.45;;;1.60;85.80;;;;;;5089554;28;20048;-86
2020/12/03 03:26:55;;;;;;;19.27;6.15;;;1.50;85.50;;;;;;5093216;28;20113;-83
2020/12/03 03:29:23;;;;;;;16.15;5.95;;;1.60;86.00;;;;;;5093610;28;20162;-84
2020/12/03 03:31:51;;;;;;;14.63;5.32;;;1.60;86.10;;;;;;5073099;28;20040;-86
2020/12/03 03:34:18;;;;;;;12.88;6.60;;;1.60;86.00;;;;;;5088383;28;20051;-83
2020/12/03 03:36:45;;;;;;;16.88;6.03;;;1.70;86.00;;;;;;5076279;28;20268;-84
2020/12/03 03:39:18;;;;;;;15.18;5.72;;;1.70;86.10;;;;;;5076434;28;20057;-83
2020/12/03 03:41:44;;;;;;;13.70;6.55;;;1.60;85.70;;;;;;5075760;28;20107;-81
2020/12/03 03:44:11;;;;;;;10.40;5.55;;;1.70;85.60;;;;;;5091875;28;20263;-84
2020/12/03 03:46:40;;;;;;;18.10;7.20;;;1.70;85.80;;;;;;5077138;28;20119;-86
2020/12/03 03:49:07;;;;;;;15.15;6.43;;;1.70;85.00;;;;;;5088257;28;20066;-82
2020/12/03 03:51:36;;;;;;;11.30;4.57;;;1.70;85.60;;;;;;5078897;28;20070;-84
2020/12/03 03:54:05;;;;;;;15.07;5.05;;;1.70;85.40;;;;;;5074585;28;20070;-84
2020/12/03 03:56:33;;;;;;;15.30;6.00;;;1.70;85.40;;;;;;5082070;28;20197;-84
2020/12/03 03:58:59;;;;;;;15.25;6.05;;;1.70;85.40;;;;;;5096367;28;20049;-84
2020/12/03 04:01:26;;;;;;;14.80;6.95;;;1.60;85.30;;;;;;5094029;28;20265;-84
2020/12/03 04:03:55;;;;;;;12.40;6.68;;;1.60;85.30;;;;;;5091187;28;20043;-86
2020/12/03 04:06:23;;;;;;;20.85;9.32;;;1.60;85.70;;;;;;5079184;28;20047;-86
2020/12/03 04:08:50;;;;;;;19.67;6.65;;;1.60;85.40;;;;;;5095426;28;20121;-86
2020/12/03 04:11:18;;;;;;;11.93;6.65;;;1.70;85.10;;;;;;5099687;28;20063;-86
2020/12/03 04:13:46;;;;;;;17.50;6.72;;;1.60;85.50;;;;;;5078465;28;20439;-84
2020/12/03 04:16:15;;;;;;;13.68;5.55;;;1.60;85.00;;;;;;5089177;28;20063;-83
2020/12/03 04:18:42;;;;;;;13.18;6.45;;;1.60;84.80;;;;;;5075922;28;20054;-88
2020/12/03 04:21:15;;;;;;;15.70;6.28;;;1.50;85.00;;;;;;5092124;28;20173;-84
2020/12/03 04:23:41;;;;;;;18.75;7.00;;;1.50;85.00;;;;;;5091579;28;20117;-85
2020/12/03 04:26:11;;;;;;;19.20;7.85;;;1.50;85.20;;;;;;5100746;28;20067;-86
2020/12/03 04:28:39;;;;;;;20.45;7.60;;;1.50;85.20;;;;;;5093818;28;20413;-85
2020/12/03 04:31:07;;;;;;;19.98;7.07;;;1.40;85.30;;;;;;5078525;28;20074;-84
2020/12/03 04:33:34;;;;;;;18.42;7.35;;;1.40;85.50;;;;;;5090498;28;20055;-84
2020/12/03 04:36:04;;;;;;;18.83;7.70;;;1.40;85.40;;;;;;5087794;28;20085;-86
2020/12/03 04:38:36;;;;;;;16.08;6.65;;;1.40;85.50;;;;;;5089247;28;20063;-85
2020/12/03 04:41:03;;;;;;;13.88;6.18;;;1.40;85.70;;;;;;5093964;28;20071;-84
2020/12/03 04:43:35;;;;;;;15.30;6.78;;;1.50;85.60;;;;;;5091368;28;20276;-85
2020/12/03 04:46:23;;;;;;;17.73;6.88;;;1.40;85.60;;;;;;5090735;28;20071;-86
2020/12/03 04:49:26;;;;;;;20.48;7.45;;;1.40;85.50;;;;;;5096879;28;20044;-84
2020/12/03 04:52:28;;;;;;;15.05;6.43;;;1.30;85.40;;;;;;5095590;28;20134;-84
2020/12/03 04:55:14;;;;;;;20.55;7.25;;;1.30;85.70;;;;;;5092892;28;20116;-84
2020/12/03 04:57:47;;;;;;;20.83;8.77;;;1.30;85.60;;;;;;5095738;28;20045;-84
2020/12/03 05:00:27;;;;;;;16.10;7.20;;;1.30;85.50;;;;;;5082487;28;20144;-82
2020/12/03 05:03:24;;;;;;;18.63;7.55;;;1.30;85.50;;;;;;5085967;28;20363;-85
2020/12/03 05:06:04;;;;;;;20.45;9.38;;;1.30;85.20;;;;;;5090286;28;20235;-83
2020/12/03 05:08:36;;;;;;;23.38;8.02;;;1.20;85.50;;;;;;5083889;28;20052;-85
2020/12/03 05:11:16;;;;;;;22.73;9.18;;;1.20;85.40;;;;;;5095512;28;20072;-84
2020/12/03 05:13:49;;;;;;;15.20;6.85;;;1.20;86.10;;;;;;5088438;28;20315;-83
2020/12/03 05:16:32;;;;;;;20.63;6.97;;;1.20;85.70;;;;;;5099056;28;20270;-84
2020/12/03 05:19:05;;;;;;;15.52;6.95;;;1.20;85.40;;;;;;5075293;28;20050;-83
2020/12/03 05:21:33;;;;;;;20.85;8.93;;;1.20;85.80;;;;;;5091366;28;20044;-85
2020/12/03 05:24:00;;;;;;;20.08;5.85;;;1.10;86.10;;;;;;5086804;28;20059;-86
2020/12/03 05:26:32;;;;;;;16.58;7.38;;;1.10;85.50;;;;;;5088955;28;20304;-83
2020/12/03 05:29:03;;;;;;;21.80;7.35;;;1.00;86.10;;;;;;5098927;28;20048;-85
2020/12/03 05:31:33;;;;;;;21.67;8.35;;;1.00;86.10;;;;;;5079371;28;20062;-83
2020/12/03 05:34:09;;;;;;;22.25;9.27;;;1.00;86.30;;;;;;5089997;28;20041;-83
2020/12/03 05:36:40;;;;;;;21.58;9.38;;;1.10;86.30;;;;;;5092258;28;20128;-86
2020/12/03 05:39:13;;;;;;;21.58;8.30;;;1.00;86.20;;;;;;5096140;28;20049;-84
2020/12/03 05:41:47;;;;;;;13.00;6.35;;;1.10;86.50;;;;;;5096028;28;20048;-84
2020/12/03 05:44:35;;;;;;;20.25;8.38;;;1.20;86.00;;;;;;5088587;28;20067;-82
2020/12/03 05:47:09;;;;;;;18.70;8.18;;;1.10;86.10;;;;;;5090690;28;20071;-84
2020/12/03 05:49:41;;;;;;;20.40;7.82;;;1.10;85.90;;;;;;5093316;28;20064;-85
2020/12/03 05:52:15;;;;;;;22.38;7.22;;;1.20;86.00;;;;;;5088793;28;20056;-82
2020/12/03 05:54:59;;;;;;;20.60;8.27;;;1.30;86.20;;;;;;5091181;28;20053;-82
2020/12/03 05:57:30;;;;;;;21.17;9.05;;;1.30;85.50;;;;;;5094410;28;20071;-83
2020/12/03 06:00:12;;;;;;;;;;;1.20;85.70;;;;;;5093020;28;20244;-83
2020/12/03 06:02:51;;;;;;;19.27;9.05;;;1.20;85.60;;;;;;5086238;28;19959;-83
2020/12/03 06:05:24;;;;;;;20.98;7.43;;;1.20;85.50;;;;;;5075831;28;20044;-87
2020/12/03 06:08:10;;;;;;;23.58;8.27;;;1.30;85.70;;;;;;5084494;28;20032;-82
2020/12/03 06:11:06;;;;;;;22.83;7.45;;;1.20;85.40;;;;;;5081125;28;20315;-84
2020/12/03 06:13:53;;;;;;;24.80;9.48;;;1.30;85.60;;;;;;5076506;28;20044;-85
2020/12/03 06:16:31;;;;;;;25.63;9.60;;;1.30;85.30;;;;;;5094809;28;20048;-84
2020/12/03 06:19:14;;;;;;;30.42;10.77;;;1.40;85.50;;;;;;5095659;28;20064;-84
2020/12/03 06:22:11;;;;;;;22.25;8.48;;;1.50;85.60;;;;;;5075589;28;20351;-86
2020/12/03 06:25:01;;;;;;;21.70;9.23;;;1.30;85.00;;;;;;5095131;28;20067;-85
2020/12/03 06:27:51;;;;;;;21.60;8.52;;;1.20;85.70;;;;;;5093759;28;20056;-85
2020/12/03 06:30:28;;;;;;;27.50;10.00;;;1.30;85.50;;;;;;5083290;28;20124;-87
2020/12/03 06:33:31;;;;;;;27.45;8.32;;;1.30;85.40;;;;;;5080720;28;20060;-85
2020/12/03 06:36:03;;;;;;;17.60;8.68;;;1.20;85.20;;;;;;5095520;28;20048;-83
2020/12/03 06:38:37;;;;;;;21.20;9.32;;;1.30;85.90;;;;;;5097786;28;20082;-84
2020/12/03 06:41:23;;;;;;;18.95;8.23;;;1.30;86.50;;;;;;5083499;28;20056;-86
2020/12/03 06:43:55;;;;;;;23.63;9.18;;;1.20;86.00;;;;;;5101434;28;20044;-83
2020/12/03 06:46:50;;;;;;;32.67;12.25;;;1.30;86.90;;;;;;5101753;28;20059;-83
2020/12/03 06:49:45;;;;;;;26.52;9.15;;;1.30;85.90;;;;;;5095210;28;20067;-84
2020/12/03 06:52:43;;;;;;;23.90;9.35;;;1.30;86.40;;;;;;5056010;28;20056;-85
2020/12/03 06:55:31;;;;;;;21.73;8.93;;;1.20;86.20;;;;;;5084320;28;20060;-84
2020/12/03 06:58:36;;;;;;;23.08;9.00;;;1.30;87.10;;;;;;5083165;28;20070;-88
2020/12/03 07:01:31;;;;;;;22.75;8.32;;;1.30;87.30;;;;;;5089706;28;20048;-84
2020/12/03 07:04:33;;;;;;;20.35;7.78;;;1.30;87.20;;;;;;5058440;28;20040;-86
2020/12/03 07:07:27;;;;;;;20.30;8.70;;;1.30;87.50;;;;;;5093311;28;20056;-84
2020/12/03 07:10:38;;;;;;;19.95;8.73;;;1.30;87.60;;;;;;5090370;28;20070;-87
2020/12/03 07:13:56;;;;;;;19.67;10.02;;;1.30;87.90;;;;;;5114723;28;20054;-84
2020/12/03 07:16:58;;;;;;;23.13;8.82;;;1.30;87.70;;;;;;5002068;28;20686;-84
2020/12/03 07:19:48;;;;;;;19.98;9.27;;;1.30;88.00;;;;;;5096718;28;20116;-86
2020/12/03 07:22:20;;;;;;;16.25;7.30;;;1.40;87.40;;;;;;5082188;28;20055;-84
2020/12/03 07:24:49;;;;;;;22.27;8.48;;;1.40;87.30;;;;;;5092664;28;20048;-87
2020/12/03 07:27:56;;;;;;;24.25;8.05;;;1.40;88.10;;;;;;5080753;28;20050;-86
2020/12/03 07:30:42;;;;;;;20.50;8.45;;;1.40;87.40;;;;;;5100390;28;20049;-87
2020/12/03 07:33:17;;;;;;;18.83;7.47;;;1.40;87.10;;;;;;5096259;28;20094;-85
2020/12/03 07:35:54;;;;;;;16.90;7.53;;;1.30;87.90;;;;;;5080268;28;20059;-83
2020/12/03 07:38:31;;;;;;;23.52;8.20;;;1.50;87.60;;;;;;5091896;28;20048;-83
2020/12/03 07:40:59;;;;;;;18.70;8.93;;;1.60;86.80;;;;;;5082581;28;20106;-84
2020/12/03 07:43:30;;;;;;;23.38;8.50;;;1.40;87.00;;;;;;5093886;28;20051;-86
2020/12/03 07:45:57;;;;;;;27.40;11.45;;;1.50;87.00;;;;;;5074156;28;20124;-87
2020/12/03 07:48:46;;;;;;;29.08;9.45;;;1.40;86.70;;;;;;5093402;28;20050;-83
2020/12/03 07:51:16;;;;;;;22.00;9.52;;;1.40;86.10;;;;;;5095293;28;20062;-87
2020/12/03 07:53:44;;;;;;;51.43;24.50;;;1.40;86.20;;;;;;5075978;28;20067;-84
2020/12/03 07:56:31;;;;;;;18.02;6.90;;;1.40;86.20;;;;;;5093529;28;20242;-85
2020/12/03 07:59:30;;;;;;;26.08;10.77;;;1.40;86.00;;;;;;5092695;28;20154;-85
2020/12/03 08:02:00;;;;;;;33.37;13.43;;;1.50;86.10;;;;;;5090264;28;20051;-87
2020/12/03 08:04:34;;;;;;;34.65;11.70;;;1.40;86.10;;;;;;5079288;28;20345;-86
2020/12/03 08:07:33;;;;;;;25.83;10.50;;;1.50;86.70;;;;;;5079435;28;20067;-85
2020/12/03 08:10:02;;;;;;;26.17;8.90;;;1.50;86.50;;;;;;5090501;28;20103;-88
2020/12/03 08:12:30;;;;;;;23.85;9.60;;;1.60;86.50;;;;;;5091506;28;20050;-84
2020/12/03 08:14:59;;;;;;;30.42;10.75;;;1.60;85.90;;;;;;5082201;28;20156;-85
2020/12/03 08:17:56;;;;;;;21.70;8.00;;;1.60;86.20;;;;;;5087134;28;20071;-85
2020/12/03 08:20:42;;;;;;;24.00;8.50;;;1.70;85.50;;;;;;5070634;28;20041;-86
2020/12/03 08:23:13;;;;;;;18.85;8.05;;;1.70;86.00;;;;;;5080791;28;20052;-86
2020/12/03 08:25:44;;;;;;;26.30;10.90;;;1.70;85.90;;;;;;5090805;28;20143;-83
2020/12/03 08:28:20;;;;;;;25.90;11.10;;;1.70;85.50;;;;;;5079746;28;20068;-90
2020/12/03 08:30:51;;;;;;;20.90;8.70;;;1.70;85.90;;;;;;5088067;28;20037;-84
2020/12/03 08:33:26;;;;;;;25.52;8.27;;;1.70;85.30;;;;;;5091613;28;20050;-87
2020/12/03 08:35:56;;;;;;;20.23;7.57;;;1.70;84.80;;;;;;5090674;28;20076;-87
2020/12/03 08:38:26;;;;;;;23.63;7.80;;;1.70;85.20;;;;;;5087429;28;20044;-84
2020/12/03 08:40:57;;;;;;;24.50;7.33;;;1.70;85.30;;;;;;5074971;28;20063;-84
2020/12/03 08:43:26;;;;;;;18.48;7.00;;;1.70;85.30;;;;;;5097945;28;20044;-85
2020/12/03 08:46:02;;;;;;;22.73;9.95;;;1.70;85.20;;;;;;5097545;28;20051;-85
2020/12/03 08:48:35;;;;;;;15.55;7.28;;;1.60;85.40;;;;;;5088348;28;20072;-84
2020/12/03 08:51:06;;;;;;;23.90;8.30;;;1.60;85.80;;;;;;5078544;28;20056;-83
2020/12/03 08:53:34;;;;;;;15.68;7.63;;;1.70;86.00;;;;;;5071340;28;20106;-84
2020/12/03 08:56:21;;;;;;;19.85;8.85;;;1.60;85.00;;;;;;5098116;28;20223;-86
2020/12/03 08:58:59;;;;;;;17.13;8.60;;;1.60;85.20;;;;;;5090359;28;20063;-86
2020/12/03 09:01:31;;;;;;;21.95;8.57;;;1.50;84.90;;;;;;5078114;28;20052;-84
2020/12/03 09:04:02;;;;;;;23.02;9.55;;;1.50;85.30;;;;;;5086397;28;20048;-83
2020/12/03 09:06:30;;;;;;;16.48;6.93;;;1.50;85.20;;;;;;5093141;28;20112;-83
2020/12/03 09:08:57;;;;;;;22.85;7.55;;;1.50;85.80;;;;;;5088895;28;20059;-84
2020/12/03 09:11:25;;;;;;;21.38;8.05;;;1.50;85.30;;;;;;5093377;28;20051;-84
2020/12/03 09:13:59;;;;;;;25.13;7.88;;;1.50;85.60;;;;;;5095240;28;20059;-87
2020/12/03 09:16:27;;;;;;;19.15;7.85;;;1.60;85.40;;;;;;5073565;28;20066;-87
2020/12/03 09:18:55;;;;;;;21.48;8.57;;;1.50;85.60;;;;;;5089498;28;20048;-86
2020/12/03 09:21:30;;;;;;;20.60;8.30;;;1.60;86.20;;;;;;5097614;28;20077;-84
2020/12/03 09:23:58;;;;;;;20.95;9.05;;;1.60;85.40;;;;;;5087307;28;20051;-84
2020/12/03 09:26:31;;;;;;;23.85;10.48;;;1.50;85.40;;;;;;5090738;28;20258;-87
2020/12/03 09:29:03;;;;;;;27.40;10.30;;;1.60;85.60;;;;;;5089800;28;20060;-86
2020/12/03 09:31:33;;;;;;;19.67;7.68;;;1.50;85.20;;;;;;5090648;28;20054;-84
2020/12/03 09:34:03;;;;;;;17.73;8.20;;;1.50;85.20;;;;;;5096702;28;20109;-88
2020/12/03 09:36:32;;;;;;;19.90;8.52;;;1.50;85.40;;;;;;5074433;28;20044;-83
2020/12/03 09:39:00;;;;;;;26.30;10.02;;;1.50;85.00;;;;;;5092999;28;20497;-85
2020/12/03 09:41:29;;;;;;;25.77;8.00;;;1.60;85.00;;;;;;5072055;28;20043;-86
2020/12/03 09:44:00;;;;;;;23.38;9.02;;;1.60;84.90;;;;;;5092215;28;20344;-85
2020/12/03 09:46:33;;;;;;;21.80;8.55;;;1.70;84.30;;;;;;5098497;28;20593;-86
2020/12/03 09:49:02;;;;;;;24.00;10.05;;;1.70;84.50;;;;;;5092250;28;20047;-85
2020/12/03 09:51:29;;;;;;;32.63;12.98;;;1.70;84.50;;;;;;5094710;28;20064;-86
2020/12/03 09:54:02;;;;;;;24.70;11.05;;;1.90;84.40;;;;;;5090247;28;20048;-87
2020/12/03 09:56:33;;;;;;;37.75;10.77;;;1.80;84.20;;;;;;5072926;28;20343;-84
2020/12/03 09:59:02;;;;;;;21.60;9.77;;;1.90;83.90;;;;;;5091866;28;20056;-83
2020/12/03 10:01:54;;;;;;;23.63;10.55;;;2.00;84.00;;;;;;5089293;28;20239;-86
2020/12/03 10:04:56;;;;;;;23.38;8.85;;;1.90;83.80;;;;;;5088731;28;20231;-85
2020/12/03 10:07:43;;;;;;;31.70;11.93;;;2.00;84.10;;;;;;5079491;28;20347;-87
2020/12/03 10:10:21;;;;;;;18.90;9.25;;;2.00;84.10;;;;;;5087977;28;20052;-87
2020/12/03 10:13:11;;;;;;;30.45;11.70;;;2.00;83.60;;;;;;5078091;28;20044;-89
2020/12/03 10:15:59;;;;;;;25.98;9.90;;;2.10;83.80;;;;;;5091356;28;20056;-83
2020/12/03 10:18:39;;;;;;;31.48;10.88;;;2.20;83.30;;;;;;5076107;28;20248;-83
2020/12/03 10:21:06;;;;;;;18.67;7.65;;;2.30;84.00;;;;;;5073780;28;20101;-84
2020/12/03 10:23:59;;;;;;;20.55;8.68;;;2.30;83.00;;;;;;5088060;28;20335;-87
2020/12/03 10:26:47;;;;;;;26.58;12.23;;;2.30;83.40;;;;;;5078604;28;20040;-85
2020/12/03 10:29:29;;;;;;;21.98;8.75;;;2.40;82.60;;;;;;5088377;28;20143;-84
2020/12/03 10:31:59;;;;;;;18.17;6.22;;;2.60;82.80;;;;;;5097099;28;20266;-83
2020/12/03 10:34:30;;;;;;;33.17;12.85;;;2.70;82.30;;;;;;5098216;28;20055;-85
2020/12/03 10:37:04;;;;;;;24.58;9.27;;;2.80;82.70;;;;;;5071528;28;20048;-85
2020/12/03 10:39:44;;;;;;;21.65;7.68;;;2.90;82.60;;;;;;5089800;28;20106;-84
2020/12/03 10:42:14;;;;;;;22.77;7.25;;;3.10;81.60;;;;;;5079023;28;20087;-84
2020/12/03 10:44:46;;;;;;;28.35;11.30;;;3.30;82.00;;;;;;5105982;28;20055;-85
2020/12/03 10:47:16;;;;;;;23.65;7.97;;;3.40;81.40;;;;;;5073547;28;20506;-86
2020/12/03 10:49:46;;;;;;;20.33;7.28;;;3.40;81.40;;;;;;5089546;28;20131;-83
2020/12/03 10:52:14;;;;;;;20.20;7.95;;;3.50;80.90;;;;;;5071285;28;20060;-85
2020/12/03 10:54:42;;;;;;;18.42;7.43;;;3.50;81.10;;;;;;5092451;28;20040;-86
2020/12/03 10:57:20;;;;;;;22.55;9.25;;;3.50;80.60;;;;;;5073211;28;20651;-87
2020/12/03 10:59:47;;;;;;;19.33;7.85;;;3.50;80.30;;;;;;5082527;28;20032;-83
2020/12/03 11:02:25;;;;;;;20.33;9.45;;;3.40;80.80;;;;;;5090811;28;20056;-86
2020/12/03 11:04:53;;;;;;;22.73;8.32;;;3.30;81.00;;;;;;5095482;28;20051;-85
2020/12/03 11:07:21;;;;;;;23.83;7.85;;;3.40;81.30;;;;;;5095016;28;20055;-84
2020/12/03 11:09:54;;;;;;;25.98;9.55;;;3.40;81.00;;;;;;5096995;28;20075;-85
2020/12/03 11:12:27;;;;;;;26.40;10.13;;;3.40;81.00;;;;;;5086993;28;20059;-86
2020/12/03 11:14:59;;;;;;;24.80;9.35;;;3.40;80.90;;;;;;5083962;28;20131;-86
2020/12/03 11:17:48;;;;;;;22.45;9.27;;;3.30;81.40;;;;;;5105103;28;20063;-87
2020/12/03 11:20:20;;;;;;;19.48;7.68;;;3.30;81.80;;;;;;5081203;28;20052;-86
2020/12/03 11:23:04;;;;;;;21.25;7.75;;;3.50;81.10;;;;;;5101194;28;20052;-86
2020/12/03 11:25:32;;;;;;;20.60;8.40;;;3.50;80.90;;;;;;5086619;28;20070;-87
2020/12/03 11:28:26;;;;;;;20.02;7.57;;;3.50;81.10;;;;;;5098651;28;20044;-84
2020/12/03 11:31:04;;;;;;;20.73;7.70;;;3.60;81.00;;;;;;5094557;28;20059;-83
2020/12/03 11:33:37;;;;;;;21.40;8.07;;;3.60;81.20;;;;;;5108722;28;20056;-84
2020/12/03 11:36:15;;;;;;;21.95;9.40;;;3.60;81.50;;;;;;5099509;28;20090;-86
2020/12/03 11:38:51;;;;;;;16.67;6.75;;;3.50;81.10;;;;;;5095283;28;20339;-84
2020/12/03 11:41:28;;;;;;;20.95;9.32;;;3.60;80.80;;;;;;5093862;28;20079;-84
2020/12/03 11:44:14;;;;;;;17.25;7.18;;;3.50;80.60;;;;;;5077847;28;20035;-85
2020/12/03 11:49:37;;;;;;;21.95;6.93;;;3.60;80.40;;;;;;5000886;28;20058;-84
2020/12/03 11:52:14;;;;;;;17.77;7.75;;;3.70;80.40;;;;;;5036451;28;20103;-87
2020/12/03 11:54:42;;;;;;;18.42;7.65;;;3.60;80.80;;;;;;5066335;28;20133;-84
2020/12/03 11:57:09;;;;;;;13.70;5.43;;;3.50;81.30;;;;;;5090008;28;20063;-84
2020/12/03 11:59:40;;;;;;;11.60;4.57;;;3.40;81.60;;;;;;5073356;28;20079;-85
2020/12/03 12:02:10;;;;;;;10.85;4.45;;;3.40;81.40;;;;;;5091906;28;20417;-84
2020/12/03 12:04:48;;;;;;;18.02;6.20;;;3.40;81.20;;;;;;5075081;28;20060;-83
2020/12/03 12:07:32;;;;;;;14.80;6.40;;;3.40;81.70;;;;;;5091597;28;20362;-86
2020/12/03 12:10:14;;;;;;;14.57;6.18;;;3.40;81.40;;;;;;5097766;28;20052;-84
2020/12/03 12:12:41;;;;;;;16.92;6.43;;;3.40;81.30;;;;;;5075727;28;20041;-87
2020/12/03 12:15:10;;;;;;;13.95;5.47;;;3.50;81.50;;;;;;5094670;28;20062;-85
2020/12/03 12:17:37;;;;;;;15.18;6.15;;;3.40;81.50;;;;;;5094876;28;20068;-83
2020/12/03 12:20:07;;;;;;;13.68;5.07;;;3.40;81.00;;;;;;5095620;28;20052;-86
2020/12/03 12:22:35;;;;;;;15.32;5.70;;;3.50;81.10;;;;;;5094591;28;20049;-84
2020/12/03 12:25:03;;;;;;;16.33;5.22;;;3.60;80.20;;;;;;5092681;28;20062;-83
2020/12/03 12:27:34;;;;;;;12.30;4.93;;;3.70;80.00;;;;;;5094127;28;20106;-86
2020/12/03 12:30:01;;;;;;;12.73;6.22;;;3.60;79.00;;;;;;5079062;28;20054;-84
2020/12/03 12:32:33;;;;;;;18.58;7.95;;;3.60;79.10;;;;;;5094523;28;20048;-85
2020/12/03 12:35:01;;;;;;;18.77;7.75;;;3.70;79.50;;;;;;5101542;28;20052;-86
2020/12/03 12:37:29;;;;;;;15.48;6.15;;;3.70;79.00;;;;;;5093893;28;20063;-85
2020/12/03 12:39:58;;;;;;;18.75;8.63;;;3.60;78.80;;;;;;5093069;28;20048;-84
2020/12/03 12:42:26;;;;;;;19.92;7.65;;;3.70;79.50;;;;;;5080611;28;20048;-84
2020/12/03 12:44:53;;;;;;;15.55;4.72;;;3.60;79.00;;;;;;5092448;28;20074;-87
2020/12/03 12:47:20;;;;;;;15.48;5.72;;;3.60;78.50;;;;;;5090834;28;20044;-85
2020/12/03 12:49:48;;;;;;;13.73;5.35;;;3.70;78.90;;;;;;5114060;28;20040;-83
2020/12/03 12:52:15;;;;;;;14.55;5.30;;;3.70;79.20;;;;;;5091637;28;20059;-84
2020/12/03 12:54:46;;;;;;;14.55;5.72;;;3.70;79.00;;;;;;5092131;28;20048;-83
2020/12/03 12:57:13;;;;;;;8.07;4.30;;;3.70;78.90;;;;;;5094227;28;20060;-82
2020/12/03 12:59:40;;;;;;;14.75;5.90;;;3.70;79.00;;;;;;5091827;28;20347;-82
2020/12/03 13:02:08;;;;;;;11.85;4.97;;;3.70;79.30;;;;;;5078301;28;20064;-84
2020/12/03 13:04:35;;;;;;;9.13;5.28;;;3.70;78.80;;;;;;5099171;28;20071;-87
2020/12/03 13:07:08;;;;;;;8.90;4.68;;;3.80;79.30;;;;;;5095219;28;20048;-85
2020/12/03 13:09:35;;;;;;;8.98;3.53;;;3.80;78.60;;;;;;5077390;28;20108;-84
2020/12/03 13:12:03;;;;;;;11.45;4.57;;;3.70;78.20;;;;;;5092925;28;20119;-86
2020/12/03 13:14:30;;;;;;;12.18;4.65;;;3.80;78.70;;;;;;5079084;28;20280;-85
2020/12/03 13:16:58;;;;;;;14.30;5.07;;;3.70;78.40;;;;;;5104857;28;20051;-87
2020/12/03 13:19:25;;;;;;;10.50;5.30;;;3.70;78.60;;;;;;5095873;28;20048;-86
2020/12/03 13:21:52;;;;;;;11.20;5.55;;;3.70;79.00;;;;;;5093132;28;20051;-85